El Trompillo Airport

SLET · Santa Cruz, Bolivia

METAR history SLET · El Trompillo Airport

Below you see METARs of the last few days. Select a year to browse through older METARs, from the year 2007 onwards.

April 24, 2024

Time Code Weather Temp. Visibility Ceiling Wind METAR/SPECI
19:00
V
28 °C 10 km+ - 340° 340° 12 kt METAR SLET 242300Z 34012KT 9999 NSC 28/23 Q1010
18:00
V
29 °C 10 km+ 20,000 ft 340° 340° 11 kt METAR SLET 242200Z 34011KT 9999 FEW017 BKN200 29/23 Q1010
17:00
V
30 °C 10 km+ 20,000 ft 340° 340° 13 kt METAR SLET 242100Z 34013KT 9999 FEW017 BKN200 30/23 Q1010
16:00
V
31 °C 10 km+ 20,000 ft 340° 340° 12 - 22 kt METAR SLET 242000Z 34012G22KT 9999 FEW020 BKN200 31/23 Q1010
15:00
V
32 °C 10 km+ 20,000 ft 340° 340° 13 - 24 kt METAR SLET 241900Z 34013G24KT 9999 SCT020 BKN200 32/23 Q1010
14:00
V
31 °C 10 km+ 20,000 ft 340° 340° 12 - 23 kt METAR SLET 241800Z 34012G23KT 9999 SCT020 BKN200 31/24 Q1011
13:00
V
31 °C 10 km+ 20,000 ft 350° 350° 12 - 23 kt METAR SLET 241700Z 35012G23KT 9999 SCT020 BKN200 31/24 Q1013
12:00
V
31 °C 10 km+ 20,000 ft 350° 350° 13 - 24 kt METAR SLET 241600Z 35013G24KT 9999 SCT017 BKN200 31/24 Q1014
11:00
V
29 °C 10 km+ 20,000 ft 340° 340° 13 - 24 kt METAR SLET 241500Z 34013G24KT 9999 FEW013 SCT017 BKN200 29/24 Q1015
10:00
V
28 °C 10 km+ 20,000 ft 350° 350° 12 - 23 kt METAR SLET 241400Z 35012G23KT 9999 FEW012 SCT015 BKN200 28/24 Q1015
09:00
V
27 °C 10 km+ 20,000 ft 340° 340° 12 - 22 kt METAR SLET 241300Z 34012G22KT 9999 FEW010 SCT013 BKN200 27/24 Q1015
08:00
V
26 °C 10 km+ 20,000 ft 350° 350° 13 kt METAR SLET 241200Z 35013KT 9999 SCT013 SCT017 BKN200 26/24 Q1014
07:00
V
25 °C 10 km+ 20,000 ft 350° 350° 11 kt METAR SLET 241100Z 35011KT 9999 SCT013 BKN200 25/24 Q1013
06:00
V
25 °C 10 km+ 20,000 ft 340° 340° 9 kt METAR SLET 241000Z 34009KT 9999 FEW010 BKN200 25/24 Q1012

April 23, 2024

Time Code Weather Temp. Visibility Ceiling Wind METAR/SPECI
19:00
V
27 °C 10 km+ - 330° 330° 10 kt METAR SLET 232300Z 33010KT 9999 FEW017 SCT200 27/23 Q1009
18:00
V
28 °C 10 km+ - 330° 330° 12 kt METAR SLET 232200Z 33012KT 9999 FEW017 FEW030CB SCT200 28/23 Q1009
17:00
V
29 °C 10 km+ - 330° 330° 14 kt METAR SLET 232100Z 33014KT 9999 FEW017 SCT200 29/24 Q1009
16:00
V
30 °C 10 km+ - 350° 350° 13 - 23 kt METAR SLET 232000Z 35013G23KT 9999 FEW020 SCT200 30/24 Q1009
15:00
V
32 °C 10 km+ - 350° 350° 14 - 24 kt METAR SLET 231900Z 35014G24KT 9999 SCT020 SCT200 32/24 Q1009
14:00
V
32 °C 10 km+ - 340° 340° 14 - 26 kt METAR SLET 231800Z 34014G26KT 9999 SCT020 SCT200 32/24 Q1010
13:00
V
32 °C 10 km+ - 330° 330° 14 - 26 kt METAR SLET 231700Z 33014G26KT 9999 SCT020 32/23 Q1011
12:00
M
31 °C 10 km+ 2,000 ft 340° 340° 14 - 24 kt METAR SLET 231600Z 34014G24KT 9999 BKN020 31/24 Q1012
11:00
M
30 °C 10 km+ 2,000 ft 350° 350° 13 - 23 kt METAR SLET 231500Z 35013G23KT 9999 FEW015 BKN020 30/23 Q1013
10:00
V
29 °C 10 km+ - 350° 350° 13 - 23 kt METAR SLET 231400Z 35013G23KT 9999 FEW013 SCT017 29/23 Q1014
09:00
V
28 °C 10 km+ - 350° 350° 13 kt METAR SLET 231300Z 35013KT 9999 SCT013 28/22 Q1013
08:00
V
27 °C 10 km+ - 350° 350° 13 kt METAR SLET 231200Z 35013KT 9999 SCT011 27/23 Q1013
07:00
V
25 °C 10 km+ - 350° 350° 10 kt METAR SLET 231100Z 35010KT 9999 FEW008 SCT070 25/23 Q1012
06:00
V
25 °C 10 km+ 7,000 ft 350° 350° 8 kt METAR SLET 231000Z 35008KT 9999 FEW015 BKN070 25/23 Q1011

April 22, 2024

Time Code Weather Temp. Visibility Ceiling Wind METAR/SPECI
19:00
V
28 °C 10 km+ - 340° 340° 12 kt METAR SLET 222300Z 34012KT 9999 NSC 28/23 Q1007
18:00
V
30 °C 10 km+ - 350° 350° 14 kt METAR SLET 222200Z 35014KT 9999 FEW017 30/23 Q1007
17:00
V
31 °C 10 km+ - 350° 350° 12 - 23 kt METAR SLET 222100Z 35012G23KT 9999 FEW020 SCT200 31/22 Q1006
16:00
V
31 °C 10 km+ - 350° 350° 16 - 28 kt METAR SLET 222000Z 35016G28KT 9999 FEW020 SCT200 31/22 Q1007
15:00
V
32 °C 10 km+ 20,000 ft 350° 350° 18 - 30 kt METAR SLET 221900Z 35018G30KT 9999 FEW020 BKN200 32/23 Q1007
14:00
V
32 °C 10 km+ 20,000 ft 350° 350° 16 - 28 kt METAR SLET 221800Z 35016G28KT 9999 FEW020 BKN200 32/23 Q1008
13:00
V
31 °C 10 km+ 20,000 ft 350° 350° 17 - 29 kt METAR SLET 221700Z 35017G29KT 9999 SCT017 BKN200 31/24 Q1009
12:00
V
31 °C 10 km+ 20,000 ft 350° 350° 16 - 29 kt METAR SLET 221600Z 35016G29KT 9999 SCT017 BKN200 31/24 Q1010
11:00
V
30 °C 10 km+ 20,000 ft 350° 350° 16 - 28 kt METAR SLET 221500Z 35016G28KT 9999 SCT017 BKN200 30/24 Q1011
10:00
V
29 °C 10 km+ - 340° 340° 15 - 27 kt METAR SLET 221400Z 34015G27KT 9999 FEW015 SCT017 29/23 Q1012
09:24
V
27 °C 10 km+ - 340° 340° 15 - 27 kt METAR SLET 221324Z 34015G27KT 9999 SCT013 SCT017 27/23 Q1012
09:00
V
27 °C 10 km+ - 350° 350° 13 - 24 kt METAR SLET 221300Z 35013G24KT 9999 SCT011 SCT015 27/23 Q1011
08:00
V
26 °C 10 km+ - 350° 350° 13 - 24 kt METAR SLET 221200Z 35013G24KT 9999 SCT008 SCT012 26/23 Q1011
07:00
I
25 °C 10 km+ 700 ft 360° 360° 13 kt METAR SLET 221100Z 36013KT 9999 BKN007 BKN011 25/24 Q1011
06:00
I
25 °C 10 km+ 600 ft 350° 350° 11 kt METAR SLET 221000Z 35011KT 9999 BKN006 BKN010 25/23 Q1010
Report a change